createdAt,value
2018-09-10T00:00:54.260Z,4.20
2018-09-10T00:03:22.506Z,4.10
2018-09-10T00:05:50.767Z,4.20
2018-09-10T00:08:19.014Z,4.23
2018-09-10T00:10:47.237Z,4.50
2018-09-10T00:13:15.505Z,4.80
2018-09-10T00:15:43.779Z,4.80
2018-09-10T00:18:12.011Z,4.73
2018-09-10T00:20:40.243Z,4.20
2018-09-10T00:23:08.498Z,4.37
2018-09-10T00:25:36.725Z,4.63
2018-09-10T00:28:04.999Z,4.53
2018-09-10T00:30:33.250Z,4.90
2018-09-10T00:33:01.481Z,4.47
2018-09-10T00:35:29.785Z,4.97
2018-09-10T00:37:58.010Z,4.50
2018-09-10T00:40:26.255Z,4.77
2018-09-10T00:42:54.493Z,4.47
2018-09-10T00:45:22.740Z,4.67
2018-09-10T00:47:50.963Z,4.47
2018-09-10T00:50:19.221Z,4.37
2018-09-10T00:52:47.448Z,4.20
2018-09-10T00:55:15.698Z,4.50
2018-09-10T00:57:43.946Z,4.30
2018-09-10T01:00:12.208Z,4.23
2018-09-10T01:02:40.435Z,4.60
2018-09-10T01:05:08.699Z,4.27
2018-09-10T01:07:36.958Z,4.47
2018-09-10T01:10:13.749Z,4.23
2018-09-10T01:12:42.022Z,4.43
2018-09-10T01:15:10.279Z,4.80
2018-09-10T01:17:38.538Z,4.20
2018-09-10T01:20:06.788Z,4.83
2018-09-10T01:22:35.127Z,4.10
2018-09-10T01:25:03.402Z,4.50
2018-09-10T01:27:31.718Z,4.10
2018-09-10T01:30:00.164Z,4.53
2018-09-10T01:32:28.410Z,4.83
2018-09-10T01:35:02.876Z,4.27
2018-09-10T01:37:31.586Z,4.80
2018-09-10T01:39:59.950Z,4.43
2018-09-10T01:42:28.320Z,4.60
2018-09-10T01:44:56.668Z,4.50
2018-09-10T01:47:25.072Z,4.63
2018-09-10T01:49:53.328Z,4.70
2018-09-10T01:52:22.162Z,4.73
2018-09-10T01:54:50.454Z,4.80
2018-09-10T01:57:18.734Z,4.67
2018-09-10T01:59:46.979Z,4.60
2018-09-10T02:02:15.242Z,4.53
2018-09-10T02:04:43.483Z,4.73
2018-09-10T02:07:11.751Z,5.20
2018-09-10T02:09:39.989Z,4.67
2018-09-10T02:12:12.416Z,4.83
2018-09-10T02:14:40.641Z,4.63
2018-09-10T02:17:08.977Z,5.00
2018-09-10T02:19:37.168Z,4.37
2018-09-10T02:22:05.419Z,4.40
2018-09-10T02:24:33.751Z,4.53
2018-09-10T02:27:02.018Z,4.43
2018-09-10T02:29:30.250Z,4.03
2018-09-10T02:31:58.481Z,4.97
2018-09-10T02:34:26.737Z,4.30
2018-09-10T02:36:54.991Z,4.47
2018-09-10T02:39:23.227Z,4.70
2018-09-10T02:41:51.494Z,5.00
2018-09-10T02:44:19.741Z,4.23
2018-09-10T02:46:47.986Z,4.20
2018-09-10T02:49:16.257Z,4.37
2018-09-10T02:51:44.491Z,4.77
2018-09-10T02:54:12.711Z,4.30
2018-09-10T02:56:40.970Z,4.37
2018-09-10T02:59:09.188Z,3.80
2018-09-10T03:01:37.417Z,4.20
2018-09-10T03:04:05.706Z,4.00
2018-09-10T03:06:33.963Z,3.70
2018-09-10T03:09:02.217Z,3.93
2018-09-10T03:11:30.481Z,3.63
2018-09-10T03:13:58.705Z,3.30
2018-09-10T03:16:26.947Z,3.40
2018-09-10T03:18:55.211Z,4.10
2018-09-10T03:21:23.428Z,3.97
2018-09-10T03:23:51.713Z,3.60
2018-09-10T03:26:20.036Z,3.63
2018-09-10T03:28:48.266Z,3.70
2018-09-10T03:31:22.701Z,3.97
2018-09-10T03:33:50.967Z,3.70
2018-09-10T03:36:19.314Z,3.80
2018-09-10T03:38:47.583Z,3.60
2018-09-10T03:41:15.824Z,4.00
2018-09-10T03:43:44.100Z,3.90
2018-09-10T03:46:12.363Z,4.10
2018-09-10T03:48:40.592Z,3.70
2018-09-10T03:51:08.832Z,4.00
2018-09-10T03:53:37.070Z,4.20
2018-09-10T03:56:05.418Z,4.53
2018-09-10T03:58:33.677Z,4.47
2018-09-10T04:01:01.947Z,4.70
2018-09-10T04:03:30.191Z,4.70
2018-09-10T04:05:58.414Z,4.43
2018-09-10T04:08:26.686Z,4.20
2018-09-10T04:10:54.940Z,4.20
2018-09-10T04:13:23.197Z,4.60
2018-09-10T04:15:51.498Z,4.17
2018-09-10T04:18:19.720Z,4.30
2018-09-10T04:20:47.952Z,4.20
2018-09-10T04:23:16.170Z,4.40
2018-09-10T04:25:44.422Z,4.23
2018-09-10T04:28:12.654Z,4.50
2018-09-10T04:30:40.929Z,4.60
2018-09-10T04:33:09.158Z,4.10
2018-09-10T04:35:37.395Z,4.13
2018-09-10T04:38:05.654Z,4.20
2018-09-10T04:40:33.882Z,4.10
2018-09-10T04:43:02.127Z,4.40
2018-09-10T04:45:30.379Z,4.03
2018-09-10T04:47:58.630Z,4.20
2018-09-10T04:50:26.869Z,4.13
2018-09-10T04:52:55.124Z,3.90
2018-09-10T04:55:23.357Z,4.40
2018-09-10T04:57:51.642Z,4.10
2018-09-10T05:00:19.977Z,4.60
2018-09-10T05:02:48.229Z,4.20
2018-09-10T05:05:16.448Z,4.80
2018-09-10T05:07:44.701Z,4.40
2018-09-10T05:10:12.943Z,4.77
2018-09-10T05:12:41.248Z,4.70
2018-09-10T05:15:09.545Z,4.63
2018-09-10T05:17:37.773Z,5.00
2018-09-10T05:20:06.080Z,4.63
2018-09-10T05:22:34.298Z,4.50
2018-09-10T05:25:02.674Z,4.90
2018-09-10T05:27:30.926Z,4.73
2018-09-10T05:29:59.156Z,4.40
2018-09-10T05:32:27.415Z,4.60
2018-09-10T05:34:55.650Z,5.57
2018-09-10T05:37:23.879Z,4.67
2018-09-10T05:39:52.163Z,5.07
2018-09-10T05:42:20.427Z,5.17
2018-09-10T05:44:48.842Z,5.33
2018-09-10T05:47:17.103Z,5.43
2018-09-10T05:49:45.372Z,5.47
2018-09-10T05:52:13.611Z,5.60
2018-09-10T05:54:41.840Z,5.80
2018-09-10T05:57:10.098Z,5.50
2018-09-10T05:59:38.422Z,5.40
2018-09-10T06:02:06.645Z,5.40
2018-09-10T06:04:34.879Z,5.27
2018-09-10T06:07:03.101Z,5.07
2018-09-10T06:09:31.343Z,5.23
2018-09-10T06:11:59.575Z,4.83
2018-09-10T06:14:27.811Z,5.17
2018-09-10T06:16:56.042Z,4.80
2018-09-10T06:19:24.255Z,4.60
2018-09-10T06:21:52.516Z,4.60
2018-09-10T06:24:20.721Z,4.53
2018-09-10T06:26:48.971Z,4.83
2018-09-10T06:29:17.242Z,5.03
2018-09-10T06:31:45.445Z,5.00
2018-09-10T06:34:13.759Z,5.23
2018-09-10T06:36:42.107Z,5.00
2018-09-10T06:39:11.854Z,6.10
2018-09-10T06:41:40.130Z,6.23
2018-09-10T06:44:08.585Z,6.57
2018-09-10T06:46:36.799Z,6.70
2018-09-10T06:49:05.174Z,7.03
2018-09-10T06:51:33.385Z,7.33
2018-09-10T06:54:01.618Z,6.43
2018-09-10T06:56:29.890Z,8.20
2018-09-10T06:58:58.114Z,9.33
2018-09-10T07:01:26.338Z,8.77
2018-09-10T07:03:54.596Z,8.30
2018-09-10T07:06:22.852Z,8.27
2018-09-10T07:08:51.061Z,8.13
2018-09-10T07:11:19.310Z,7.53
2018-09-10T07:13:47.559Z,6.83
2018-09-10T07:16:15.793Z,6.00
2018-09-10T07:18:44.237Z,5.50
2018-09-10T07:21:12.386Z,5.43
2018-09-10T07:23:40.598Z,5.43
2018-09-10T07:26:08.862Z,4.90
2018-09-10T07:28:37.098Z,5.97
2018-09-10T07:31:05.362Z,5.90
2018-09-10T07:33:33.590Z,4.80
2018-09-10T07:36:01.810Z,5.20
2018-09-10T07:38:30.038Z,5.83
2018-09-10T07:40:58.302Z,5.37
2018-09-10T07:43:26.534Z,5.10
2018-09-10T07:45:54.830Z,5.10
2018-09-10T07:48:23.068Z,4.77
2018-09-10T07:50:51.276Z,4.70
2018-09-10T07:53:19.514Z,4.70
2018-09-10T07:55:47.746Z,4.97
2018-09-10T07:58:15.990Z,4.50
2018-09-10T08:00:44.247Z,4.23
2018-09-10T08:03:12.470Z,4.37
2018-09-10T08:05:40.711Z,4.93
2018-09-10T08:08:08.969Z,4.20
2018-09-10T08:10:37.222Z,4.50
2018-09-10T08:13:05.474Z,4.23
2018-09-10T08:15:33.715Z,4.27
2018-09-10T08:18:01.958Z,5.00
2018-09-10T08:20:30.182Z,4.50
2018-09-10T08:22:58.414Z,4.20
2018-09-10T08:25:26.646Z,4.20
2018-09-10T08:27:54.873Z,4.10
2018-09-10T08:30:23.125Z,4.73
2018-09-10T08:32:51.374Z,4.30
2018-09-10T08:35:19.615Z,4.20
2018-09-10T08:37:47.881Z,4.83
2018-09-10T08:40:16.135Z,4.00
2018-09-10T08:42:44.402Z,4.73
2018-09-10T08:45:12.634Z,4.10
2018-09-10T08:47:40.883Z,4.03
2018-09-10T08:50:09.763Z,4.53
2018-09-10T08:52:38.036Z,4.67
2018-09-10T08:55:06.381Z,4.03
2018-09-10T08:57:34.542Z,4.70
2018-09-10T09:00:02.793Z,4.50
2018-09-10T09:02:31.022Z,4.60
2018-09-10T09:04:59.603Z,4.57
2018-09-10T09:07:27.836Z,4.20
2018-09-10T09:09:56.086Z,4.23
2018-09-10T09:12:24.289Z,4.10
2018-09-10T09:14:52.506Z,4.23
2018-09-10T09:17:20.802Z,4.13
2018-09-10T09:19:48.988Z,4.57
2018-09-10T09:22:17.219Z,4.00
2018-09-10T09:24:46.158Z,4.40
2018-09-10T09:27:14.398Z,4.00
2018-09-10T09:29:42.616Z,4.40
2018-09-10T09:32:10.872Z,4.20
2018-09-10T09:34:44.431Z,3.93
2018-09-10T09:37:17.907Z,4.20
2018-09-10T09:40:49.952Z,3.93
2018-09-10T09:43:23.721Z,4.07
2018-09-10T09:45:57.190Z,4.43
2018-09-10T09:48:25.459Z,4.43
2018-09-10T09:50:53.687Z,4.67
2018-09-10T09:53:21.906Z,3.80
2018-09-10T09:55:50.153Z,3.90
2018-09-10T09:58:18.401Z,3.93
2018-09-10T10:00:56.439Z,3.60
2018-09-10T10:03:29.977Z,3.47
2018-09-10T10:05:58.232Z,3.47
2018-09-10T10:08:26.489Z,3.70
2018-09-10T10:10:54.716Z,3.87
2018-09-10T10:13:23.299Z,3.90
2018-09-10T10:15:51.526Z,3.63
2018-09-10T10:18:19.744Z,3.57
2018-09-10T10:20:48.007Z,3.77
2018-09-10T10:23:16.234Z,4.27
2018-09-10T10:25:44.477Z,4.00
2018-09-10T10:28:12.776Z,3.80
2018-09-10T10:30:40.970Z,3.87
2018-09-10T10:33:09.190Z,4.17
2018-09-10T10:35:37.489Z,4.17
2018-09-10T10:38:06.084Z,3.70
2018-09-10T10:40:34.323Z,4.27
2018-09-10T10:43:02.557Z,3.60
2018-09-10T10:45:30.785Z,3.90
2018-09-10T10:47:59.075Z,4.07
2018-09-10T10:50:27.334Z,4.40
2018-09-10T10:52:55.571Z,4.93
2018-09-10T10:55:23.814Z,4.60
2018-09-10T10:57:52.058Z,4.40
2018-09-10T11:00:20.629Z,4.50
2018-09-10T11:02:48.898Z,4.00
2018-09-10T11:05:17.146Z,4.13
2018-09-10T11:07:45.385Z,4.00
2018-09-10T11:10:13.606Z,3.87
2018-09-10T11:12:41.862Z,4.27
2018-09-10T11:15:10.091Z,4.27
2018-09-10T11:17:38.327Z,4.73
2018-09-10T11:20:07.162Z,3.80
2018-09-10T11:22:35.406Z,4.27
2018-09-10T11:25:03.733Z,4.30
2018-09-10T11:27:32.046Z,4.13
2018-09-10T11:30:00.234Z,4.03
2018-09-10T11:32:28.602Z,4.10
2018-09-10T11:34:57.312Z,4.00
2018-09-10T11:37:25.656Z,3.87
2018-09-10T11:39:53.922Z,3.93
2018-09-10T11:42:22.185Z,4.07
2018-09-10T11:44:50.422Z,3.90
2018-09-10T11:47:18.651Z,4.13
2018-09-10T11:49:46.907Z,3.80
2018-09-10T11:52:15.152Z,3.73
2018-09-10T11:54:43.402Z,3.90
2018-09-10T11:57:11.652Z,3.83
2018-09-10T11:59:39.903Z,4.03
2018-09-10T12:02:09.047Z,3.80
2018-09-10T12:04:37.571Z,3.60
2018-09-10T12:07:06.014Z,3.40
2018-09-10T12:09:34.240Z,3.30
2018-09-10T12:12:02.561Z,3.83
2018-09-10T12:14:30.811Z,3.40
2018-09-10T12:16:59.044Z,3.90
2018-09-10T12:19:27.331Z,3.30
2018-09-10T12:21:55.574Z,3.10
2018-09-10T12:24:23.852Z,3.13
2018-09-10T12:26:52.123Z,3.33
2018-09-10T12:29:20.411Z,3.73
2018-09-10T12:31:48.626Z,3.50
2018-09-10T12:34:16.866Z,3.20
2018-09-10T12:36:45.131Z,3.03
2018-09-10T12:39:13.398Z,3.43
2018-09-10T12:41:42.034Z,3.53
2018-09-10T12:44:10.252Z,3.30
2018-09-10T12:46:38.558Z,3.90
2018-09-10T12:49:06.763Z,4.37
2018-09-10T12:51:35.007Z,4.30
2018-09-10T12:54:03.234Z,4.00
2018-09-10T12:56:31.494Z,4.13
2018-09-10T12:58:59.775Z,4.60
2018-09-10T13:01:28.000Z,5.00
2018-09-10T13:03:56.267Z,4.93
2018-09-10T13:06:24.495Z,5.33
2018-09-10T13:08:52.727Z,5.10
2018-09-10T13:11:20.990Z,4.90
2018-09-10T13:13:49.282Z,4.73
2018-09-10T13:16:17.608Z,4.90
2018-09-10T13:18:46.283Z,4.53
2018-09-10T13:21:14.549Z,5.03
2018-09-10T13:23:42.787Z,5.20
2018-09-10T13:26:11.033Z,5.27
2018-09-10T13:28:39.300Z,5.00
2018-09-10T13:31:07.564Z,5.10
2018-09-10T13:33:35.851Z,4.90
2018-09-10T13:36:04.121Z,5.80
2018-09-10T13:38:32.334Z,5.03
2018-09-10T13:41:00.614Z,5.20
2018-09-10T13:43:28.841Z,4.87
2018-09-10T13:45:57.119Z,4.50
2018-09-10T13:48:25.358Z,4.30
2018-09-10T13:50:53.653Z,4.37
2018-09-10T13:53:21.891Z,4.67
2018-09-10T13:55:50.128Z,4.40
2018-09-10T13:58:18.361Z,4.67
2018-09-10T14:00:46.603Z,4.67
2018-09-10T14:03:14.859Z,4.60
2018-09-10T14:05:43.082Z,4.47
2018-09-10T14:08:11.343Z,4.30
2018-09-10T14:10:39.622Z,4.40
2018-09-10T14:13:07.802Z,3.93
2018-09-10T14:15:36.072Z,4.23
2018-09-10T14:18:04.364Z,4.37
2018-09-10T14:20:32.565Z,4.23
2018-09-10T14:23:00.781Z,4.47
2018-09-10T14:25:29.034Z,4.93
2018-09-10T14:27:57.274Z,4.90
2018-09-10T14:30:25.499Z,4.37
2018-09-10T14:32:53.749Z,5.17
2018-09-10T14:35:21.983Z,3.87
2018-09-10T14:37:50.198Z,4.53
2018-09-10T14:40:18.446Z,4.70
2018-09-10T14:42:46.719Z,4.83
2018-09-10T14:45:15.291Z,4.77
2018-09-10T14:47:43.547Z,4.67
2018-09-10T14:50:11.778Z,4.60
2018-09-10T14:52:39.999Z,4.90
2018-09-10T14:55:08.263Z,4.40
2018-09-10T14:57:36.495Z,4.80
2018-09-10T15:00:04.802Z,4.80
2018-09-10T15:02:33.042Z,4.40
2018-09-10T15:05:01.297Z,5.20
2018-09-10T15:07:29.555Z,4.87
2018-09-10T15:09:57.793Z,4.77
2018-09-10T15:12:26.036Z,4.83
2018-09-10T15:14:54.263Z,4.13
2018-09-10T15:17:22.546Z,4.40
2018-09-10T15:19:50.818Z,4.83
2018-09-10T15:22:19.067Z,5.13
2018-09-10T15:24:47.375Z,4.73
2018-09-10T15:27:15.730Z,4.53
2018-09-10T15:29:43.979Z,4.43
2018-09-10T15:32:12.251Z,4.87
2018-09-10T15:34:40.534Z,5.10
2018-09-10T15:37:08.738Z,4.93
2018-09-10T15:39:37.005Z,4.93
2018-09-10T15:42:05.351Z,4.73
2018-09-10T15:44:33.566Z,5.17
2018-09-10T15:47:01.809Z,4.80
2018-09-10T15:49:30.050Z,4.33
2018-09-10T15:51:58.294Z,5.13
2018-09-10T15:54:26.542Z,4.10
2018-09-10T15:56:54.832Z,4.03
2018-09-10T15:59:23.615Z,4.70
2018-09-10T16:01:51.873Z,4.63
2018-09-10T16:04:20.118Z,4.70
2018-09-10T16:06:48.382Z,4.37
2018-09-10T16:09:16.631Z,4.37
2018-09-10T16:11:44.903Z,4.13
2018-09-10T16:14:13.170Z,4.10
2018-09-10T16:16:41.421Z,4.33
2018-09-10T16:19:09.654Z,4.10
2018-09-10T16:21:37.907Z,4.00
2018-09-10T16:24:07.166Z,4.10
2018-09-10T16:26:35.400Z,3.90
2018-09-10T16:29:03.684Z,4.23
2018-09-10T16:31:31.954Z,4.17
2018-09-10T16:34:00.257Z,3.73
2018-09-10T16:36:28.414Z,4.07
2018-09-10T16:38:56.690Z,3.43
2018-09-10T16:41:24.962Z,4.27
2018-09-10T16:43:53.206Z,3.97
2018-09-10T16:46:21.519Z,3.87
2018-09-10T16:48:49.770Z,3.70
2018-09-10T16:51:17.980Z,3.23
2018-09-10T16:53:46.215Z,3.80
2018-09-10T16:56:14.452Z,3.57
2018-09-10T16:58:42.653Z,4.03
2018-09-10T17:01:10.903Z,3.97
2018-09-10T17:03:39.126Z,3.77
2018-09-10T17:06:07.375Z,3.47
2018-09-10T17:08:35.611Z,3.80
2018-09-10T17:11:03.817Z,3.97
2018-09-10T17:13:32.075Z,4.20
2018-09-10T17:16:00.435Z,3.67
2018-09-10T17:18:28.668Z,3.97
2018-09-10T17:20:56.950Z,3.80
2018-09-10T17:23:25.181Z,3.73
2018-09-10T17:25:54.777Z,3.50
2018-09-10T17:28:23.127Z,3.77
2018-09-10T17:30:52.010Z,3.67
2018-09-10T17:33:20.418Z,3.90
2018-09-10T17:35:49.056Z,3.57
2018-09-10T17:38:17.334Z,3.53
2018-09-10T17:40:45.558Z,3.70
2018-09-10T17:43:13.762Z,3.50
2018-09-10T17:45:41.994Z,3.70
2018-09-10T17:48:10.214Z,3.90
2018-09-10T17:50:38.481Z,4.00
2018-09-10T17:53:06.738Z,4.33
2018-09-10T17:55:35.019Z,4.30
2018-09-10T17:58:05.143Z,4.20
2018-09-10T18:00:33.445Z,4.60
2018-09-10T18:03:01.663Z,3.50
2018-09-10T18:05:29.893Z,3.90
2018-09-10T18:07:58.261Z,4.20
2018-09-10T18:10:26.562Z,4.37
2018-09-10T18:12:54.782Z,3.73
2018-09-10T18:15:23.066Z,4.00
2018-09-10T18:17:51.290Z,3.90
2018-09-10T18:20:19.593Z,3.97
2018-09-10T18:22:47.771Z,4.10
2018-09-10T18:25:16.000Z,3.87
2018-09-10T18:27:44.257Z,4.10
2018-09-10T18:30:12.541Z,4.97
2018-09-10T18:32:40.774Z,4.57
2018-09-10T18:35:10.770Z,4.13
2018-09-10T18:37:39.297Z,4.20
2018-09-10T18:40:07.578Z,5.67
2018-09-10T18:42:35.827Z,5.53
2018-09-10T18:45:04.111Z,5.80
2018-09-10T18:47:32.358Z,5.17
2018-09-10T18:50:00.651Z,5.10
2018-09-10T18:52:28.871Z,5.17
2018-09-10T18:54:57.089Z,4.90
2018-09-10T18:57:25.355Z,4.70
2018-09-10T18:59:53.615Z,5.17
2018-09-10T19:02:21.845Z,5.57
2018-09-10T19:04:50.051Z,4.43
2018-09-10T19:07:18.296Z,5.20
2018-09-10T19:09:46.551Z,4.43
2018-09-10T19:12:14.738Z,4.77
2018-09-10T19:14:42.990Z,5.20
2018-09-10T19:17:11.251Z,6.03
2018-09-10T19:19:39.531Z,5.70
2018-09-10T19:22:08.048Z,5.57
2018-09-10T19:24:36.262Z,5.53
2018-09-10T19:27:04.522Z,4.90
2018-09-10T19:29:32.735Z,5.40
2018-09-10T19:32:01.044Z,5.30
2018-09-10T19:34:29.303Z,5.77
2018-09-10T19:36:57.550Z,5.57
2018-09-10T19:39:25.818Z,5.13
2018-09-10T19:41:54.062Z,5.47
2018-09-10T19:44:22.306Z,4.87
2018-09-10T19:46:50.542Z,5.07
2018-09-10T19:49:18.790Z,4.70
2018-09-10T19:51:47.011Z,4.93
2018-09-10T19:54:15.250Z,4.90
2018-09-10T19:56:43.471Z,4.83
2018-09-10T19:59:11.723Z,5.27
2018-09-10T20:01:39.939Z,5.30
2018-09-10T20:04:08.165Z,4.83
2018-09-10T20:06:36.402Z,5.47
2018-09-10T20:09:06.566Z,4.50
2018-09-10T20:11:34.787Z,4.50
2018-09-10T20:14:03.877Z,5.10
2018-09-10T20:16:32.107Z,4.87
2018-09-10T20:19:00.339Z,4.67
2018-09-10T20:21:28.562Z,5.30
2018-09-10T20:23:56.803Z,4.90
2018-09-10T20:26:25.059Z,5.40
2018-09-10T20:28:53.287Z,4.83
2018-09-10T20:31:21.663Z,5.03
2018-09-10T20:33:55.014Z,5.30
2018-09-10T20:36:23.251Z,5.17
2018-09-10T20:38:51.499Z,5.10
2018-09-10T20:41:19.714Z,5.33
2018-09-10T20:43:47.969Z,5.50
2018-09-10T20:46:16.180Z,4.60
2018-09-10T20:48:44.430Z,5.33
2018-09-10T20:51:12.722Z,5.10
2018-09-10T20:53:40.967Z,5.40
2018-09-10T20:56:09.247Z,5.20
2018-09-10T20:58:37.491Z,4.97
2018-09-10T21:01:05.873Z,5.43
2018-09-10T21:03:34.082Z,5.87
2018-09-10T21:06:02.333Z,4.90
2018-09-10T21:08:30.564Z,5.17
2018-09-10T21:10:58.825Z,6.03
2018-09-10T21:13:27.035Z,5.70
2018-09-10T21:15:55.306Z,5.60
2018-09-10T21:18:23.562Z,5.50
2018-09-10T21:20:51.846Z,5.83
2018-09-10T21:23:20.055Z,5.30
2018-09-10T21:25:48.275Z,5.70
2018-09-10T21:28:16.501Z,6.13
2018-09-10T21:30:44.807Z,7.10
2018-09-10T21:33:13.297Z,6.33
2018-09-10T21:35:41.444Z,6.87
2018-09-10T21:38:09.683Z,5.47
2018-09-10T21:40:37.921Z,5.57
2018-09-10T21:43:06.191Z,5.93
2018-09-10T21:45:34.447Z,6.60
2018-09-10T21:48:02.691Z,5.70
2018-09-10T21:50:30.915Z,5.43
2018-09-10T21:52:59.126Z,5.60
2018-09-10T21:55:27.403Z,5.57
2018-09-10T21:57:55.629Z,5.43
2018-09-10T22:00:23.898Z,5.60
2018-09-10T22:02:52.137Z,5.50
2018-09-10T22:05:20.379Z,5.83
2018-09-10T22:07:48.618Z,5.60
2018-09-10T22:10:16.882Z,5.20
2018-09-10T22:12:45.104Z,5.53
2018-09-10T22:15:13.342Z,5.10
2018-09-10T22:17:41.574Z,5.43
2018-09-10T22:20:09.829Z,5.43
2018-09-10T22:22:38.033Z,5.37
2018-09-10T22:25:06.318Z,5.13
2018-09-10T22:27:34.545Z,5.80
2018-09-10T22:30:02.771Z,4.90
2018-09-10T22:32:31.002Z,6.07
2018-09-10T22:34:59.221Z,5.17
2018-09-10T22:37:27.422Z,5.13
2018-09-10T22:39:55.630Z,5.60
2018-09-10T22:42:23.854Z,5.23
2018-09-10T22:44:52.053Z,5.50
2018-09-10T22:47:20.254Z,5.33
2018-09-10T22:49:48.499Z,5.33
2018-09-10T22:52:16.787Z,5.67
2018-09-10T22:54:44.954Z,5.50
2018-09-10T22:57:13.165Z,5.27
2018-09-10T22:59:41.386Z,4.83
2018-09-10T23:02:09.612Z,5.50
2018-09-10T23:04:37.879Z,4.67
2018-09-10T23:07:06.117Z,5.63
2018-09-10T23:09:34.341Z,4.90
2018-09-10T23:12:02.586Z,5.73
2018-09-10T23:14:30.855Z,5.30
2018-09-10T23:16:59.082Z,5.00
2018-09-10T23:19:27.322Z,6.27
2018-09-10T23:21:55.530Z,5.70
2018-09-10T23:24:23.761Z,5.47
2018-09-10T23:26:51.999Z,6.30
2018-09-10T23:29:20.235Z,5.83
2018-09-10T23:31:48.466Z,6.10
2018-09-10T23:34:16.723Z,5.87
2018-09-10T23:36:44.943Z,5.80
2018-09-10T23:39:13.163Z,5.90
2018-09-10T23:41:41.460Z,5.50
2018-09-10T23:44:09.671Z,5.53
2018-09-10T23:46:37.935Z,5.63
2018-09-10T23:49:06.185Z,5.30
2018-09-10T23:51:34.430Z,5.97
2018-09-10T23:54:02.647Z,5.07
2018-09-10T23:56:34.302Z,6.10
2018-09-10T23:59:02.554Z,5.60
